Flight Track Log - Related Links

Times and Time Zones

All times are in EDT time to prevent confusion due to time zone crossing. See the CHQ5041 flight status page for this flight to view local times or setup timezone preferences in your user account.

Time Position Orientation Groundspeed Altitude Reporting Facility
EDT Latitude Longitude Course Direction KTS MPH feet Rate Location/Type
Thu 09:00:11 PM 42.9500 -87.9000 183° South 146 168 1,400  Level KMKE
Thu 09:00:29 PM 42.9667 -87.8833 36° Northeast 152 175 2,200 2,385 Climbing KMKE
Thu 09:01:29 PM 42.9667 -87.8333 90° East 220 253 4,500 2,400 Climbing KMKE
Thu 09:02:09 PM 42.9547 -87.7839 108° East 213 245 6,200 1,529 Climbing Chicago Center
Thu 09:03:00 PM 42.8158 -87.8984 180° South  Level Estimated
Thu 09:03:11 PM 42.9292 -87.6997 112° Southeast 236 272 7,100  Level Chicago Center
Thu 09:04:00 PM 42.7831 -87.8987 180° South  Level Estimated
Thu 09:04:13 PM 42.8681 -87.6725 162° South 251 289 7,000  Level Chicago Center
Thu 09:05:00 PM 42.7503 -87.8990 183° South  Level Estimated
Thu 09:05:15 PM 42.8003 -87.6697 178° South 246 283 7,100  Level Chicago Center
Thu 09:06:17 PM 42.7206 -87.6658 178° South 244 281 7,100  Level Chicago Center
Thu 09:07:19 PM 42.6511 -87.6650 179° South 247 284 7,100 -48 Level Chicago Center
Thu 09:08:21 PM 42.5819 -87.6611 178° South 247 284 7,000 -49 Descending Chicago Center
Thu 09:09:22 PM 42.5133 -87.6572 178° South 248 285 7,000  Level Chicago Center
Thu 09:10:24 PM 42.4433 -87.6586 181° South 249 287 7,000  Level Chicago Center
Thu 09:11:26 PM 42.3781 -87.6294 162° South 252 290 7,000  Level Chicago Center
Thu 09:12:28 PM 42.3111 -87.5911 157° South 248 285 7,000  Level Chicago Center
Thu 09:13:30 PM 42.2514 -87.6403 211° Southwest 261 300 7,000  Level Chicago Center
Thu 09:14:32 PM 42.1886 -87.7158 222° Southwest 254 292 7,000  Level Chicago Center
Thu 09:15:34 PM 42.1342 -87.7806 221° Southwest 261 300 7,000  Level Chicago Center
Thu 09:16:38 PM 42.0833 -87.8667 232° Southwest 270 311 7,000  Level Chicago TRACON
Thu 09:17:39 PM 42.0500 -87.9500 242° Southwest 287 330 7,000 -149 Level Chicago TRACON
Thu 09:18:39 PM 42.0500 -88.0667 270° West 273 314 6,700 -500 Descending Chicago TRACON
Thu 09:19:39 PM 42.0667 -88.1667 283° West 280 322 6,000 -650 Descending Chicago TRACON
Thu 09:20:39 PM 42.0500 -88.2667 257° West 270 311 5,400 -469 Descending Chicago TRACON
Thu 09:21:47 PM 41.9986 -88.3025 207° Southwest 254 292 5,000 -462 Descending Chicago Center
Thu 09:22:49 PM 41.9656 -88.2553 133° Southeast 221 254 4,400 -484 Descending Chicago Center
Thu 09:23:51 PM 41.9681 -88.1758 88° East 221 254 4,000 -600 Descending Chicago Center
Thu 09:24:39 PM 41.9667 -88.1000 91° East 187 215 3,300 -875 Descending Chicago TRACON

Login

Don't have an account? Register now (free) for customized features, flight alerts, and more!